Time;durP1;ratioP1;P1;durP2;ratioP2;P2;SDS_P1;SDS_P2;PMS_P1;PMS_P2;Temp;Humidity;BMP_temperature;BMP_pressure;BME280_temperature;BME280_humidity;BME280_pressure;Samples;Min_cycle;Max_cycle;Signal;HPM_P1;HPM_P2
2023/04/18 00:01:39;;;;;;;2.80;1.70;;;;;;;16.14;46.59;95982.00;5040862;28;20403;-29
2023/04/18 00:04:04;;;;;;;3.28;1.50;;;;;;;16.01;46.83;95984.28;5038346;28;20522;-29
2023/04/18 00:06:31;;;;;;;3.85;1.95;;;;;;;16.10;46.81;95978.69;5035627;28;20062;-31
2023/04/18 00:08:56;;;;;;;5.68;2.22;;;;;;;15.95;47.17;95982.69;5036488;28;20461;-29
2023/04/18 00:11:22;;;;;;;3.15;1.80;;;;;;;16.05;46.96;95979.38;5036338;28;20040;-29
2023/04/18 00:13:47;;;;;;;2.53;1.60;;;;;;;15.90;47.15;95978.63;5043042;28;20022;-29
2023/04/18 00:16:12;;;;;;;2.10;1.73;;;;;;;15.91;47.26;95977.41;5043268;28;20025;-29
2023/04/18 00:18:38;;;;;;;3.83;1.75;;;;;;;16.20;46.75;95968.38;5036331;28;20033;-30
2023/04/18 00:21:07;;;;;;;4.10;2.17;;;;;;;15.96;47.13;95965.78;5036244;28;20013;-30
2023/04/18 00:23:34;;;;;;;2.97;1.50;;;;;;;16.12;46.58;95973.50;5043351;28;20025;-29
2023/04/18 00:26:00;;;;;;;3.90;2.00;;;;;;;15.98;47.36;95971.53;5043282;28;20378;-31
2023/04/18 00:28:25;;;;;;;5.30;2.13;;;;;;;15.81;47.49;95970.53;5036414;28;20075;-30
2023/04/18 00:30:51;;;;;;;4.00;2.20;;;;;;;15.86;47.35;95958.91;5035978;28;20301;-29
2023/04/18 00:33:16;;;;;;;2.75;2.03;;;;;;;15.98;47.27;95963.31;5036035;28;20104;-29
2023/04/18 00:35:42;;;;;;;4.38;2.00;;;;;;;15.69;47.67;95968.81;5035981;28;20025;-29
2023/04/18 00:38:07;;;;;;;3.67;2.10;;;;;;;15.74;47.71;95960.69;5035793;28;20457;-30
2023/04/18 00:40:33;;;;;;;2.80;2.00;;;;;;;15.89;47.42;95955.22;5035669;28;20017;-29
2023/04/18 00:42:59;;;;;;;2.33;1.50;;;;;;;15.75;47.46;95959.47;5042806;28;20448;-29
2023/04/18 00:45:24;;;;;;;3.78;1.70;;;;;;;15.89;47.25;95955.22;5035446;28;20477;-30
2023/04/18 00:47:50;;;;;;;3.75;2.20;;;;;;;15.81;47.40;95954.13;5042806;28;20033;-29
2023/04/18 00:50:16;;;;;;;3.15;1.90;;;;;;;15.82;47.54;95953.63;5035979;28;20031;-31
2023/04/18 00:52:43;;;;;;;3.63;2.22;;;;;;;15.93;47.21;95950.34;5035404;28;20049;-29
2023/04/18 00:55:09;;;;;;;2.55;1.70;;;;;;;15.73;47.83;95964.66;5042999;28;20104;-30
2023/04/18 00:57:35;;;;;;;3.00;1.73;;;;;;;15.71;48.02;95956.16;5035377;28;20091;-28
2023/04/18 01:00:08;;;;;;;4.53;1.98;;;;;;;15.93;47.27;95953.06;5035110;28;20009;-29
2023/04/18 01:02:34;;;;;;;2.60;1.73;;;;;;;15.78;47.63;95955.81;5028532;28;20457;-29
2023/04/18 01:05:00;;;;;;;2.17;1.70;;;;;;;15.72;47.71;95952.22;5040876;28;20404;-29
2023/04/18 01:07:26;;;;;;;2.47;1.70;;;;;;;15.64;47.90;95942.88;5037169;28;20035;-29
2023/04/18 01:09:52;;;;;;;3.65;2.20;;;;;;;15.86;47.50;95942.50;5040394;28;20029;-29
2023/04/18 01:12:18;;;;;;;3.75;2.00;;;;;;;15.77;47.90;95945.34;5042428;28;20028;-31
2023/04/18 01:14:43;;;;;;;4.50;2.03;;;;;;;15.72;47.95;95935.03;5034856;28;20013;-29
2023/04/18 01:17:09;;;;;;;2.58;2.03;;;;;;;15.80;47.77;95936.94;5034843;28;20017;-29
2023/04/18 01:19:38;;;;;;;2.45;1.83;;;;;;;15.76;47.76;95938.34;5035318;28;20060;-29
2023/04/18 01:22:05;;;;;;;4.40;2.03;;;;;;;15.88;47.59;95929.09;5041278;28;20048;-30
2023/04/18 01:24:31;;;;;;;2.70;1.70;;;;;;;15.76;47.87;95932.88;5049698;28;20024;-30
2023/04/18 01:27:01;;;;;;;2.70;1.90;;;;;;;15.57;48.44;95928.84;5035018;28;20014;-29
2023/04/18 01:29:27;;;;;;;2.85;2.00;;;;;;;15.84;47.46;95923.06;5041643;28;20037;-29
2023/04/18 01:31:52;;;;;;;3.20;2.13;;;;;;;15.78;47.55;95928.47;5035291;28;20487;-29
2023/04/18 01:34:18;;;;;;;3.00;2.17;;;;;;;15.69;47.69;95936.00;5039918;28;20490;-29
2023/04/18 01:36:44;;;;;;;3.20;1.83;;;;;;;15.77;47.87;95931.66;5034992;28;20018;-29
2023/04/18 01:39:10;;;;;;;3.00;1.85;;;;;;;15.79;47.43;95923.75;5035158;28;20052;-29
2023/04/18 01:41:35;;;;;;;3.47;2.10;;;;;;;15.64;47.94;95928.47;5034726;28;20082;-28
2023/04/18 01:44:01;;;;;;;3.30;2.03;;;;;;;15.72;47.86;95924.88;5034922;28;22984;-30
2023/04/18 01:46:27;;;;;;;2.15;1.60;;;;;;;15.70;47.94;95926.59;5039278;28;20032;-29
2023/04/18 01:48:53;;;;;;;3.47;2.13;;;;;;;15.66;47.98;95939.69;5036724;28;20025;-30
2023/04/18 01:51:18;;;;;;;2.22;1.73;;;;;;;15.86;47.66;95928.81;5041183;28;20029;-31
2023/04/18 01:53:44;;;;;;;2.90;1.77;;;;;;;15.72;47.99;95924.13;5040830;28;20098;-29
2023/04/18 01:56:09;;;;;;;2.25;1.92;;;;;;;15.82;47.91;95918.06;5035618;28;20071;-29
2023/04/18 01:58:35;;;;;;;3.03;1.70;;;;;;;15.89;48.08;95922.41;5034138;28;20017;-29
2023/04/18 02:01:01;;;;;;;3.60;1.75;;;;;;;15.66;48.83;95924.03;5034107;28;20020;-29
2023/04/18 02:03:27;;;;;;;3.72;1.85;;;;;;;15.77;48.64;95926.19;5043306;28;20104;-29
2023/04/18 02:05:52;;;;;;;3.13;2.00;;;;;;;15.81;48.74;95921.31;5046133;28;20104;-29
2023/04/18 02:08:18;;;;;;;3.00;1.90;;;;;;;15.64;49.49;95928.47;5041369;28;20454;-29
2023/04/18 02:10:44;;;;;;;2.80;1.90;;;;;;;15.67;49.66;95938.47;5035152;28;20063;-29
2023/04/18 02:13:09;;;;;;;4.20;2.00;;;;;;;15.67;49.99;95941.94;5034355;28;20033;-29
2023/04/18 02:15:35;;;;;;;3.35;2.05;;;;;;;15.82;49.89;95937.22;5034169;28;20082;-29
2023/04/18 02:18:01;;;;;;;3.45;2.00;;;;;;;15.90;49.89;95934.88;5041013;28;20017;-29
2023/04/18 02:20:30;;;;;;;3.53;1.90;;;;;;;15.75;50.34;95936.84;5041192;28;20021;-31
2023/04/18 02:22:59;;;;;;;2.78;1.90;;;;;;;15.55;51.08;95940.25;5037832;28;20055;-29
2023/04/18 02:25:26;;;;;;;2.70;2.40;;;;;;;15.84;50.43;95936.00;5036624;28;20025;-31
2023/04/18 02:27:55;;;;;;;3.85;2.13;;;;;;;15.75;50.78;95934.13;5042877;28;20029;-29
2023/04/18 02:30:22;;;;;;;3.05;2.17;;;;;;;15.70;51.05;95932.06;5044285;28;20029;-29
2023/04/18 02:32:53;;;;;;;3.83;2.30;;;;;;;15.60;51.11;95933.34;5036024;28;20099;-31
2023/04/18 02:35:19;;;;;;;3.15;2.10;;;;;;;15.70;51.63;95932.06;5038685;28;20028;-31
2023/04/18 02:37:45;;;;;;;2.40;2.20;;;;;;;15.69;51.52;95930.53;5032564;28;20038;-29
2023/04/18 02:40:11;;;;;;;3.55;2.45;;;;;;;15.77;51.14;95932.41;5033652;28;20381;-29
2023/04/18 02:42:37;;;;;;;4.18;2.20;;;;;;;15.69;51.39;95936.00;5033790;28;20021;-29
2023/04/18 02:45:02;;;;;;;2.95;2.47;;;;;;;15.73;51.30;95925.63;5033807;28;20030;-29
2023/04/18 02:47:28;;;;;;;2.90;2.38;;;;;;;15.64;51.71;95936.66;5033894;28;20022;-30
2023/04/18 02:49:53;;;;;;;2.97;2.08;;;;;;;15.64;51.84;95942.13;5040804;28;20350;-29
2023/04/18 02:52:19;;;;;;;3.30;2.25;;;;;;;15.72;51.63;95935.81;5033603;28;20037;-29
2023/04/18 02:54:44;;;;;;;4.05;2.10;;;;;;;15.49;52.24;95938.59;5033421;28;20021;-29
2023/04/18 02:57:10;;;;;;;3.03;2.00;;;;;;;15.36;52.64;95934.16;5034000;28;20025;-31
2023/04/18 02:59:35;;;;;;;2.53;2.20;;;;;;;15.44;52.13;95937.28;5037764;28;20099;-30
2023/04/18 03:02:00;;;;;;;4.47;2.38;;;;;;;15.66;52.05;95934.97;5036364;28;20376;-29
2023/04/18 03:04:26;;;;;;;3.58;2.40;;;;;;;15.62;51.94;95948.06;5042946;28;20119;-30
2023/04/18 03:06:52;;;;;;;2.92;2.47;;;;;;;15.45;52.47;95928.59;5038471;28;20017;-29
2023/04/18 03:09:17;;;;;;;2.75;2.22;;;;;;;15.60;52.16;95927.88;5033756;28;20400;-30
2023/04/18 03:11:43;;;;;;;3.55;2.70;;;;;;;15.40;52.87;95923.81;5033662;28;20420;-29
2023/04/18 03:14:08;;;;;;;3.47;2.78;;;;;;;15.45;52.75;95920.41;5040385;28;20036;-29
2023/04/18 03:16:34;;;;;;;3.30;2.25;;;;;;;15.61;52.61;95930.16;5033775;28;20112;-29
2023/04/18 03:19:00;;;;;;;5.80;2.60;;;;;;;15.59;52.32;95918.19;5033448;28;20071;-29
2023/04/18 03:21:26;;;;;;;3.28;2.30;;;;;;;15.66;52.41;95920.56;5033257;28;20017;-29
2023/04/18 03:23:52;;;;;;;4.47;2.33;;;;;;;15.59;52.22;95918.19;5025713;28;20033;-29
2023/04/18 03:26:17;;;;;;;5.57;2.85;;;;;;;15.63;52.25;95914.03;5033045;28;20496;-29
2023/04/18 03:28:43;;;;;;;4.45;2.65;;;;;;;15.64;52.50;95914.78;5039922;28;20025;-29
2023/04/18 03:31:08;;;;;;;4.13;2.58;;;;;;;15.64;52.48;95914.78;5033192;28;20473;-28
2023/04/18 03:33:34;;;;;;;4.18;2.70;;;;;;;15.68;52.29;95912.63;5032853;28;20033;-29
2023/04/18 03:35:59;;;;;;;3.63;2.35;;;;;;;15.52;52.95;95913.81;5033706;28;20022;-29
2023/04/18 03:38:25;;;;;;;3.40;2.72;;;;;;;15.71;52.41;95911.66;5032734;28;20029;-29
2023/04/18 03:40:51;;;;;;;4.38;2.65;;;;;;;15.60;52.47;95911.50;5039786;28;20024;-30
2023/04/18 03:43:19;;;;;;;6.22;2.58;;;;;;;15.52;52.68;95911.09;5039919;28;20481;-29
2023/04/18 03:45:46;;;;;;;4.70;2.60;;;;;;;15.61;52.57;95902.06;5034135;28;20029;-30
2023/04/18 03:48:12;;;;;;;4.53;3.05;;;;;;;15.63;52.55;95910.56;5028973;28;20020;-29
2023/04/18 03:50:38;;;;;;;5.35;3.10;;;;;;;15.70;52.08;95904.72;5036739;28;20021;-29
2023/04/18 03:53:03;;;;;;;5.55;3.25;;;;;;;15.51;52.93;95904.13;5043791;28;20032;-29
2023/04/18 03:55:29;;;;;;;6.03;3.20;;;;;;;15.53;52.31;95907.13;5036842;28;20026;-29
2023/04/18 03:57:54;;;;;;;4.97;2.60;;;;;;;15.59;52.14;95912.72;5036775;28;20456;-29
2023/04/18 04:00:19;;;;;;;5.93;3.15;;;;;;;15.57;52.38;95909.72;5036759;28;20027;-30
2023/04/18 04:02:45;;;;;;;5.07;2.90;;;;;;;15.74;51.85;95908.75;5036564;28;20021;-30
2023/04/18 04:05:10;;;;;;;3.78;2.63;;;;;;;15.60;52.48;95911.50;5043338;28;20124;-30
2023/04/18 04:07:36;;;;;;;3.20;2.60;;;;;;;15.77;51.96;95915.25;5043322;28;20473;-29
2023/04/18 04:10:01;;;;;;;3.53;2.67;;;;;;;15.68;52.05;95912.63;5043505;28;20029;-29
2023/04/18 04:12:27;;;;;;;5.72;2.90;;;;;;;15.43;52.67;95920.16;5036324;28;20021;-29
2023/04/18 04:14:52;;;;;;;4.07;2.55;;;;;;;15.50;52.56;95918.25;5036375;28;20053;-29
2023/04/18 04:17:18;;;;;;;4.78;2.80;;;;;;;15.50;52.43;95919.00;5035817;28;20024;-29
2023/04/18 04:19:43;;;;;;;6.40;3.05;;;;;;;15.76;51.79;95919.97;5043673;28;20023;-31
2023/04/18 04:22:09;;;;;;;3.63;2.88;;;;;;;15.73;51.77;95909.22;5041504;28;20086;-29
2023/04/18 04:24:38;;;;;;;4.82;3.13;;;;;;;15.51;52.58;95919.75;5045277;28;20021;-31
2023/04/18 04:27:04;;;;;;;3.28;2.60;;;;;;;15.62;52.49;95922.72;5036139;28;20017;-30
2023/04/18 04:29:29;;;;;;;3.20;2.50;;;;;;;15.55;52.70;95926.59;5042417;28;20127;-29
2023/04/18 04:31:55;;;;;;;4.07;2.60;;;;;;;15.49;53.00;95927.66;5045094;28;20083;-29
2023/04/18 04:34:20;;;;;;;5.70;2.80;;;;;;;15.66;52.43;95926.00;5040627;28;20025;-29
2023/04/18 04:36:47;;;;;;;5.07;3.08;;;;;;;15.72;52.30;95924.13;5043255;28;20079;-29
2023/04/18 04:39:13;;;;;;;7.53;3.40;;;;;;;15.56;52.26;95916.41;5035950;28;20116;-30
2023/04/18 04:41:39;;;;;;;4.78;3.17;;;;;;;15.73;51.98;95928.34;5036019;28;20025;-29
2023/04/18 04:44:05;;;;;;;5.15;3.10;;;;;;;15.42;52.65;95935.03;5036016;28;20054;-29
2023/04/18 04:46:31;;;;;;;6.00;3.13;;;;;;;15.49;52.40;95933.88;5048384;28;20384;-29
2023/04/18 04:48:56;;;;;;;5.57;3.17;;;;;;;15.56;52.20;95938.28;5044451;28;20017;-29
2023/04/18 04:51:22;;;;;;;6.93;2.90;;;;;;;15.59;52.23;95938.06;5035603;28;20037;-30
2023/04/18 04:53:47;;;;;;;4.68;3.38;;;;;;;15.57;52.24;95939.78;5035511;28;20032;-30
2023/04/18 04:56:13;;;;;;;4.75;3.13;;;;;;;15.38;52.98;95937.19;5035399;28;20030;-29
2023/04/18 04:58:38;;;;;;;8.32;5.00;;;;;;;15.61;52.05;95940.31;5039245;28;20029;-29
2023/04/18 05:01:06;;;;;;;7.95;5.28;;;;;;;15.64;52.03;95944.84;5036098;28;20048;-29
2023/04/18 05:03:32;;;;;;;7.00;4.93;;;;;;;15.54;52.24;95946.91;5028178;28;20505;-31
2023/04/18 05:05:57;;;;;;;5.53;4.35;;;;;;;15.58;52.33;95952.22;5042750;28;20026;-29
2023/04/18 05:08:23;;;;;;;6.00;3.80;;;;;;;15.64;52.07;95948.34;5035513;28;20017;-31
2023/04/18 05:10:48;;;;;;;5.25;3.78;;;;;;;15.36;52.70;95942.34;5040863;28;20021;-29
2023/04/18 05:13:14;;;;;;;4.28;3.15;;;;;;;15.69;52.02;95952.41;5042167;28;20021;-29
2023/04/18 05:15:40;;;;;;;3.92;3.10;;;;;;;15.77;51.51;95948.06;5042906;28;20079;-29
2023/04/18 05:18:05;;;;;;;4.20;2.90;;;;;;;15.54;52.28;95946.16;5034704;28;20057;-29
2023/04/18 05:20:31;;;;;;;10.32;3.50;;;;;;;15.58;52.23;95952.22;5035338;28;20033;-29
2023/04/18 05:22:56;;;;;;;6.35;3.10;;;;;;;15.59;52.09;95957.19;5033806;28;20022;-29
2023/04/18 05:25:22;;;;;;;3.85;2.60;;;;;;;15.63;52.26;95957.03;5041876;28;20098;-29
2023/04/18 05:27:47;;;;;;;4.68;3.03;;;;;;;15.63;52.13;95959.75;5035441;28;20021;-29
2023/04/18 05:30:13;;;;;;;4.68;2.80;;;;;;;15.64;52.15;95962.03;5034788;28;20383;-29
2023/04/18 05:32:38;;;;;;;4.15;3.05;;;;;;;15.64;52.36;95962.03;5035274;28;20465;-29
2023/04/18 05:35:07;;;;;;;11.45;7.78;;;;;;;15.72;52.36;95962.38;5034508;28;20104;-30
2023/04/18 05:37:33;;;;;;;13.07;8.57;;;;;;;15.55;52.74;95959.38;5025716;28;20025;-29
2023/04/18 05:39:58;;;;;;;20.75;10.45;;;;;;;15.68;52.23;95956.38;5034828;28;20380;-29
2023/04/18 05:42:24;;;;;;;18.00;9.13;;;;;;;15.68;52.49;95951.66;5041631;28;20100;-29
2023/04/18 05:44:49;;;;;;;14.43;7.90;;;;;;;15.56;52.80;95965.59;5034933;28;20021;-29
2023/04/18 05:47:15;;;;;;;12.35;6.72;;;;;;;15.62;52.59;95959.00;5042261;28;20201;-29
2023/04/18 05:49:40;;;;;;;11.52;5.50;;;;;;;15.63;52.55;95965.22;5034316;28;20030;-29
2023/04/18 05:52:06;;;;;;;12.32;6.18;;;;;;;15.46;53.08;95979.31;5034745;28;20021;-29
2023/04/18 05:54:31;;;;;;;11.68;5.78;;;;;;;15.66;52.82;95975.22;5038945;28;20021;-29
2023/04/18 05:56:57;;;;;;;16.40;5.10;;;;;;;15.45;53.31;95966.84;5036984;28;20104;-29
2023/04/18 05:59:25;;;;;;;9.65;5.30;;;;;;;15.66;52.73;95980.69;5041313;28;20017;-29
2023/04/18 06:01:51;;;;;;;9.85;4.43;;;;;;;15.66;52.69;95975.97;5034045;28;20353;-29
2023/04/18 06:04:16;;;;;;;6.70;5.10;;;;;;;15.55;52.86;95985.97;5035399;28;20034;-29
2023/04/18 06:06:41;;;;;;;8.88;5.97;;;;;;;15.52;53.08;95986.84;5040652;28;20028;-29
2023/04/18 06:09:07;;;;;;;7.20;5.03;;;;;;;15.51;53.21;95988.09;5040618;28;20466;-29
2023/04/18 06:11:34;;;;;;;6.50;4.32;;;;;;;15.66;52.71;95981.44;5043447;28;20021;-30
2023/04/18 06:14:00;;;;;;;6.05;4.25;;;;;;;15.59;52.98;95995.47;5034204;28;20013;-29
2023/04/18 06:16:25;;;;;;;5.88;3.65;;;;;;;15.70;52.91;95990.19;5034230;28;20043;-29
2023/04/18 06:18:51;;;;;;;7.60;4.03;;;;;;;15.82;52.57;95994.63;5033870;28;20068;-30
2023/04/18 06:21:16;;;;;;;4.53;2.97;;;;;;;15.73;52.70;95996.69;5040856;28;20105;-30
2023/04/18 06:23:42;;;;;;;4.50;3.60;;;;;;;15.58;53.27;95996.69;5036270;28;20465;-29
2023/04/18 06:26:08;;;;;;;4.47;3.10;;;;;;;15.55;53.42;95986.72;5039166;28;20027;-31
2023/04/18 06:28:33;;;;;;;5.47;3.20;;;;;;;15.84;52.63;95994.16;5040992;28;20024;-28
2023/04/18 06:30:59;;;;;;;4.57;3.38;;;;;;;15.85;52.81;95990.22;5033613;28;20018;-29
2023/04/18 06:33:24;;;;;;;6.63;3.53;;;;;;;15.74;53.03;95990.00;5034026;28;20036;-29
2023/04/18 06:35:50;;;;;;;6.22;3.95;;;;;;;15.91;52.57;95991.06;5040935;28;20112;-30
2023/04/18 06:38:15;;;;;;;11.18;5.57;;;;;;;15.74;52.83;95992.75;5040980;28;20024;-30
2023/04/18 06:40:41;;;;;;;8.95;5.45;;;;;;;15.71;53.18;95988.97;5033268;28;20471;-30
2023/04/18 06:43:07;;;;;;;13.15;7.22;;;;;;;15.92;52.49;95991.81;5034233;28;20057;-29
2023/04/18 06:45:32;;;;;;;9.27;5.35;;;;;;;15.76;52.92;95993.78;5033772;28;20029;-30
2023/04/18 06:48:00;;;;;;;7.43;4.85;;;;;;;15.67;53.21;95995.88;5039901;28;20061;-29
2023/04/18 06:50:26;;;;;;;7.38;4.70;;;;;;;15.65;53.47;96001.81;5038056;28;20522;-29
2023/04/18 06:52:51;;;;;;;7.50;4.55;;;;;;;15.82;53.12;96001.34;5036620;28;20025;-29
2023/04/18 06:55:17;;;;;;;6.25;4.63;;;;;;;15.82;52.92;95997.38;5034015;28;20055;-28
2023/04/18 06:57:42;;;;;;;6.85;4.53;;;;;;;15.88;52.72;96000.22;5033567;28;20028;-32
2023/04/18 07:00:09;;;;;;;7.10;4.28;;;;;;;15.60;53.40;96004.41;5033613;28;20080;-29
2023/04/18 07:02:37;;;;;;;5.32;4.00;;;;;;;15.89;52.69;96009.16;5033416;28;20128;-31
2023/04/18 07:05:03;;;;;;;5.28;3.60;;;;;;;15.66;53.37;96010.75;5047615;28;20076;-29
2023/04/18 07:07:29;;;;;;;4.35;3.25;;;;;;;15.83;52.62;96006.31;5040750;28;20021;-31
2023/04/18 07:09:55;;;;;;;5.03;3.65;;;;;;;15.79;52.92;96003.03;5038924;28;20025;-30
2023/04/18 07:12:20;;;;;;;5.55;3.80;;;;;;;15.90;52.95;96005.22;5035175;28;20029;-29
2023/04/18 07:14:45;;;;;;;5.43;3.97;;;;;;;15.84;53.24;96007.84;5033339;28;20369;-29
2023/04/18 07:17:11;;;;;;;5.85;3.75;;;;;;;15.68;53.72;96005.56;5040292;28;20021;-30
2023/04/18 07:19:36;;;;;;;4.40;3.35;;;;;;;15.75;53.67;95997.75;5035324;28;20026;-30
2023/04/18 07:22:02;;;;;;;6.75;3.78;;;;;;;15.74;53.66;96003.69;5042194;28;20384;-29
2023/04/18 07:24:27;;;;;;;4.78;3.97;;;;;;;15.64;53.93;96000.28;5037214;28;20033;-29
2023/04/18 07:26:53;;;;;;;6.38;3.80;;;;;;;15.72;53.75;96011.59;5037358;28;20021;-29
2023/04/18 07:29:18;;;;;;;4.97;4.10;;;;;;;15.90;53.23;96007.94;5033697;28;20037;-29
2023/04/18 07:31:45;;;;;;;4.88;3.65;;;;;;;15.91;53.39;96006.72;5044716;28;20029;-29
2023/04/18 07:34:10;;;;;;;4.80;3.42;;;;;;;15.89;53.47;96004.44;5044260;28;20370;-29
2023/04/18 07:36:36;;;;;;;5.40;4.03;;;;;;;15.88;53.44;96008.41;5036627;28;20025;-29
2023/04/18 07:39:01;;;;;;;8.73;4.65;;;;;;;15.79;54.21;96011.25;5037550;28;20028;-31
2023/04/18 07:41:27;;;;;;;6.15;4.28;;;;;;;15.90;53.83;96021.63;5036774;28;20024;-29
2023/04/18 07:43:53;;;;;;;6.82;4.10;;;;;;;15.80;53.98;96013.50;5036994;28;20145;-30
2023/04/18 07:46:18;;;;;;;6.20;4.20;;;;;;;15.91;53.53;96018.41;5036690;28;20048;-29
2023/04/18 07:48:44;;;;;;;4.65;3.95;;;;;;;15.76;54.29;96012.19;5036778;28;20033;-30
2023/04/18 07:51:10;;;;;;;5.10;4.15;;;;;;;15.85;53.88;96025.00;5036728;28;20025;-29
2023/04/18 07:53:36;;;;;;;5.22;3.95;;;;;;;15.86;54.04;96021.78;5036700;28;20437;-30
2023/04/18 07:56:01;;;;;;;9.57;6.32;;;;;;;15.97;53.75;96030.19;5036683;28;20116;-30
2023/04/18 07:58:27;;;;;;;11.05;6.13;;;;;;;15.95;53.90;96029.91;5043828;28;20116;-29
2023/04/18 08:00:52;;;;;;;11.80;7.32;;;;;;;15.80;54.32;96026.44;5043765;28;20017;-29
2023/04/18 08:03:18;;;;;;;11.68;8.32;;;;;;;15.92;53.75;96033.59;5036962;28;20457;-29
2023/04/18 08:05:43;;;;;;;9.18;6.55;;;;;;;16.03;53.28;96025.59;5043726;28;20021;-32
2023/04/18 08:08:10;;;;;;;8.18;5.30;;;;;;;15.93;53.98;96037.09;5036093;28;20029;-29
2023/04/18 08:10:36;;;;;;;7.53;4.90;;;;;;;15.80;54.17;96026.44;5036863;28;20060;-29
2023/04/18 08:13:02;;;;;;;11.93;7.13;;;;;;;15.89;54.07;96031.81;5042307;28;20021;-30
2023/04/18 08:15:27;;;;;;;10.05;6.75;;;;;;;16.15;53.26;96040.97;5037845;28;20510;-29
2023/04/18 08:17:54;;;;;;;9.90;6.05;;;;;;;16.06;53.70;96043.78;5036523;28;20017;-30
2023/04/18 08:20:19;;;;;;;10.73;5.72;;;;;;;16.08;53.22;96049.53;5036402;28;20430;-29
2023/04/18 08:22:46;;;;;;;8.15;4.90;;;;;;;16.01;53.66;96052.66;5038552;28;20032;-29
2023/04/18 08:25:11;;;;;;;5.88;3.50;;;;;;;16.03;53.66;96058.41;5039479;28;20527;-29
2023/04/18 08:27:37;;;;;;;6.25;3.80;;;;;;;16.11;53.47;96053.31;5043915;28;20033;-30
2023/04/18 08:30:03;;;;;;;3.78;3.03;;;;;;;16.06;53.58;96052.00;5042712;28;20079;-29
2023/04/18 08:32:30;;;;;;;3.97;3.05;;;;;;;15.95;53.68;96051.78;5035586;28;20032;-30
2023/04/18 08:34:56;;;;;;;4.78;3.50;;;;;;;16.10;53.76;96060.00;5043131;28;20036;-30
2023/04/18 08:37:21;;;;;;;5.70;4.05;;;;;;;16.21;53.09;96065.66;5035888;28;20021;-28
2023/04/18 08:39:47;;;;;;;4.53;3.25;;;;;;;16.19;52.91;96065.41;5043156;28;20025;-29
2023/04/18 08:42:18;;;;;;;5.35;3.78;;;;;;;16.16;53.52;96064.34;5035929;28;20025;-29
2023/04/18 08:44:46;;;;;;;4.38;3.08;;;;;;;16.11;53.58;96058.78;5035492;28;20033;-28
2023/04/18 08:47:12;;;;;;;4.47;3.28;;;;;;;16.31;53.02;96077.28;5050340;28;20029;-31
2023/04/18 08:49:38;;;;;;;5.13;3.13;;;;;;;16.22;53.42;96074.63;5035507;28;20025;-29
2023/04/18 08:52:12;;;;;;;5.03;2.70;;;;;;;16.38;52.50;96071.41;5036744;28;20410;-29
2023/04/18 08:54:41;;;;;;;3.72;2.67;;;;;;;16.02;53.19;96067.84;5040702;28;20026;-30
2023/04/18 08:57:09;;;;;;;4.35;2.63;;;;;;;16.32;52.70;96067.84;5042733;28;20037;-29
2023/04/18 08:59:35;;;;;;;4.55;2.78;;;;;;;16.41;52.63;96075.97;5035742;28;20491;-29
2023/04/18 09:02:02;;;;;;;2.75;2.38;;;;;;;16.18;54.21;96080.31;5035322;28;20025;-29
2023/04/18 09:04:39;;;;;;;4.82;2.47;;;;;;;16.26;53.12;96075.19;5044613;28;20041;-30
2023/04/18 09:07:10;;;;;;;4.30;2.90;;;;;;;16.38;53.09;96079.63;5044318;28;20369;-28
2023/04/18 09:09:47;;;;;;;4.28;2.75;;;;;;;16.17;53.30;96087.75;5052032;28;20028;-29
2023/04/18 09:12:16;;;;;;;3.60;2.50;;;;;;;16.13;53.36;96076.22;5037822;28;20076;-30
2023/04/18 09:14:44;;;;;;;3.63;2.63;;;;;;;16.33;52.65;96075.56;5027996;28;20021;-29
2023/04/18 09:17:19;;;;;;;4.13;3.03;;;;;;;16.56;52.10;96078.69;5035105;28;20018;-31
2023/04/18 09:19:48;;;;;;;3.95;2.60;;;;;;;16.42;52.18;96080.19;5039116;28;20064;-30
2023/04/18 09:22:15;;;;;;;3.05;2.55;;;;;;;16.42;52.81;96086.44;5041353;28;20078;-29
2023/04/18 09:24:51;;;;;;;3.72;2.60;;;;;;;16.39;52.45;96083.88;5037167;28;20025;-30
2023/04/18 09:27:17;;;;;;;2.67;2.30;;;;;;;16.55;52.29;96097.09;5039392;28;20368;-31
2023/04/18 09:29:48;;;;;;;3.03;2.17;;;;;;;16.60;52.28;96099.16;5042396;28;20533;-30
2023/04/18 09:32:29;;;;;;;2.80;2.20;;;;;;;16.66;52.11;96102.78;5037780;28;20100;-29
2023/04/18 09:35:01;;;;;;;2.92;2.35;;;;;;;16.36;53.23;96112.94;5037122;28;20512;-29
2023/04/18 09:37:28;;;;;;;4.77;2.70;;;;;;;16.35;53.25;96111.44;5039261;28;20473;-29
2023/04/18 09:39:54;;;;;;;3.40;2.47;;;;;;;16.48;52.64;96100.19;5041821;28;20528;-30
2023/04/18 09:42:20;;;;;;;3.35;2.35;;;;;;;16.65;51.94;96114.94;5034794;28;20025;-28
2023/04/18 09:45:02;;;;;;;4.55;2.90;;;;;;;16.75;51.76;96102.66;5033774;28;20477;-28
2023/04/18 09:47:28;;;;;;;3.95;2.95;;;;;;;16.82;51.80;96104.25;5036355;28;20029;-28
2023/04/18 09:49:54;;;;;;;4.15;3.22;;;;;;;16.64;52.84;96105.22;5041852;28;20074;-29
2023/04/18 09:52:20;;;;;;;5.40;3.50;;;;;;;16.62;52.19;96121.38;5027401;28;20044;-29
2023/04/18 09:54:56;;;;;;;5.43;3.42;;;;;;;16.57;53.02;96116.50;5034215;28;20025;-30
2023/04/18 09:57:26;;;;;;;5.63;3.30;;;;;;;16.20;53.95;96115.38;5041217;28;20026;-28
2023/04/18 10:00:00;;;;;;;4.53;3.40;;;;;;;16.51;52.97;96108.22;5034440;28;20152;-28
2023/04/18 10:02:32;;;;;;;5.15;3.92;;;;;;;16.55;53.13;96112.75;5048004;28;20021;-28
2023/04/18 10:04:58;;;;;;;7.05;4.22;;;;;;;16.27;53.59;96104.84;5033939;28;20056;-30
2023/04/18 10:07:26;;;;;;;7.30;4.65;;;;;;;16.63;52.56;96117.41;5034376;28;20043;-28
2023/04/18 10:09:52;;;;;;;7.25;4.47;;;;;;;16.68;52.67;96110.50;5038584;28;20091;-28
2023/04/18 10:12:18;;;;;;;7.45;4.05;;;;;;;16.73;52.15;96113.31;5037767;28;20036;-29
2023/04/18 10:14:44;;;;;;;6.75;4.20;;;;;;;16.62;52.57;96124.09;5037081;28;20017;-29
2023/04/18 10:17:10;;;;;;;6.30;3.85;;;;;;;16.57;52.44;96105.56;5038164;28;20492;-29
2023/04/18 10:19:37;;;;;;;8.25;4.55;;;;;;;16.69;52.08;96115.50;5041336;28;20032;-28
2023/04/18 10:22:02;;;;;;;6.70;4.20;;;;;;;16.64;52.78;96109.94;5033718;28;20457;-28
2023/04/18 10:24:52;;;;;;;7.18;4.43;;;;;;;16.69;52.29;96112.75;5033970;28;20096;-29
2023/04/18 10:27:38;;;;;;;6.30;4.00;;;;;;;16.77;52.24;96108.41;5030067;28;20036;-29
2023/04/18 10:30:04;;;;;;;6.00;3.60;;;;;;;16.92;51.95;96107.63;5037386;28;20459;-30
2023/04/18 10:32:31;;;;;;;4.90;3.60;;;;;;;16.88;52.22;96105.84;5044065;28;20156;-28
2023/04/18 10:34:58;;;;;;;4.95;3.20;;;;;;;16.68;52.18;96111.28;5041292;28;20025;-30
2023/04/18 10:37:25;;;;;;;4.05;3.10;;;;;;;16.68;53.38;96111.28;5033920;28;20104;-28
2023/04/18 10:40:06;;;;;;;5.03;3.58;;;;;;;16.96;52.13;96108.19;5033828;28;20060;-29
2023/04/18 10:42:47;;;;;;;4.20;2.92;;;;;;;16.85;52.65;96106.78;5033622;28;20493;-28
2023/04/18 10:45:17;;;;;;;4.35;3.17;;;;;;;16.75;52.93;96105.41;5048269;28;20029;-30
2023/04/18 10:47:42;;;;;;;3.70;2.78;;;;;;;16.76;52.84;96101.44;5048095;28;20035;-29
2023/04/18 10:50:08;;;;;;;4.50;3.33;;;;;;;16.83;52.56;96100.28;5033906;28;20025;-28
2023/04/18 10:52:33;;;;;;;5.20;3.50;;;;;;;16.82;52.44;96105.00;5040632;28;20025;-30
2023/04/18 10:55:16;;;;;;;3.75;2.75;;;;;;;16.78;52.29;96107.19;5035534;28;20092;-28
2023/04/18 10:57:46;;;;;;;3.30;2.78;;;;;;;16.85;52.58;96098.56;5038075;28;20162;-28
2023/04/18 11:00:15;;;;;;;4.93;3.03;;;;;;;16.82;52.69;96105.00;5039670;28;20044;-28
2023/04/18 11:02:51;;;;;;;4.22;3.10;;;;;;;17.04;51.78;96096.38;5043177;28;20428;-28
2023/04/18 11:05:23;;;;;;;3.50;2.75;;;;;;;16.92;52.53;96096.69;5037766;28;20112;-28
2023/04/18 11:07:49;;;;;;;4.50;3.63;;;;;;;16.92;52.52;96089.22;5037471;28;20166;-28
2023/04/18 11:10:20;;;;;;;5.93;3.53;;;;;;;16.83;52.58;96094.78;5042950;28;20049;-30
2023/04/18 11:12:46;;;;;;;5.65;3.35;;;;;;;17.02;52.20;96089.84;5037520;28;20049;-28
2023/04/18 11:15:20;;;;;;;5.43;3.83;;;;;;;17.01;51.92;96088.34;5045040;28;20111;-29
2023/04/18 11:17:53;;;;;;;4.75;3.70;;;;;;;16.83;52.44;96087.34;5030032;28;20033;-28
2023/04/18 11:20:18;;;;;;;7.60;4.05;;;;;;;16.93;52.18;96098.19;5037101;28;20017;-28
2023/04/18 11:22:50;;;;;;;5.80;4.15;;;;;;;17.16;51.76;96078.09;5037783;28;20017;-31
2023/04/18 11:25:17;;;;;;;5.05;3.30;;;;;;;16.93;52.40;96088.00;5037318;28;20075;-29
2023/04/18 11:27:43;;;;;;;6.38;4.38;;;;;;;16.95;51.89;96090.22;5043757;28;20120;-28
2023/04/18 11:30:10;;;;;;;6.70;3.97;;;;;;;17.05;51.96;96084.19;5047463;28;20025;-30